Time;durP1;ratioP1;P1;durP2;ratioP2;P2;SDS_P1;SDS_P2;PMS_P1;PMS_P2;Temp;Humidity;BMP_temperature;BMP_pressure;BME280_temperature;BME280_humidity;BME280_pressure;Samples;Min_cycle;Max_cycle;Signal;HPM_P1;HPM_P2
2021/08/18 00:01:53;;;;;;;4.27;2.60;;;;;;;15.87;82.27;101629.31;5085126;28;20263;-69
2021/08/18 00:04:19;;;;;;;3.63;2.60;;;;;;;15.74;82.47;101632.25;5084252;28;20244;-69
2021/08/18 00:06:46;;;;;;;5.60;2.80;;;;;;;15.87;81.98;101629.31;5082979;28;20217;-69
2021/08/18 00:09:13;;;;;;;4.40;2.47;;;;;;;15.77;82.36;101621.03;5085112;28;20229;-69
2021/08/18 00:11:39;;;;;;;6.00;2.67;;;;;;;15.75;82.88;101633.09;5083105;28;20217;-70
2021/08/18 00:14:06;;;;;;;5.70;2.53;;;;;;;15.83;82.79;101632.72;5081603;28;20221;-70
2021/08/18 00:16:32;;;;;;;3.87;2.43;;;;;;;15.73;82.77;101629.81;5086704;28;20246;-69
2021/08/18 00:19:00;;;;;;;4.50;3.17;;;;;;;15.84;82.53;101631.66;5082370;28;20217;-70
2021/08/18 00:21:26;;;;;;;5.17;2.80;;;;;;;15.71;82.04;101631.94;5085452;28;20267;-70
2021/08/18 00:23:53;;;;;;;3.47;2.97;;;;;;;15.46;81.83;101635.69;5081399;28;20746;-70
2021/08/18 00:26:25;;;;;;;4.43;3.50;;;;;;;15.45;81.62;101635.91;5081845;28;20761;-69
2021/08/18 00:28:52;;;;;;;5.27;2.87;;;;;;;15.43;81.45;101629.94;5082070;28;20213;-69
2021/08/18 00:31:18;;;;;;;3.23;2.30;;;;;;;15.41;81.15;101637.44;5081385;28;20264;-70
2021/08/18 00:33:45;;;;;;;2.90;2.50;;;;;;;15.43;79.67;101635.34;5082585;28;20210;-69
2021/08/18 00:36:12;;;;;;;5.43;2.43;;;;;;;15.52;78.77;101637.44;5082736;28;20259;-69
2021/08/18 00:38:39;;;;;;;3.63;2.57;;;;;;;15.62;78.79;101631.47;5085065;28;20623;-70
2021/08/18 00:41:05;;;;;;;3.23;2.40;;;;;;;15.48;79.12;101644.34;5084597;28;20274;-69
2021/08/18 00:43:32;;;;;;;5.30;2.70;;;;;;;15.51;78.60;101638.50;5084768;28;20596;-70
2021/08/18 00:45:58;;;;;;;7.73;3.17;;;;;;;15.56;78.98;101635.09;5079852;28;20213;-69
2021/08/18 00:48:24;;;;;;;4.77;2.60;;;;;;;15.47;79.40;101628.41;5082786;28;20652;-70
2021/08/18 00:50:51;;;;;;;3.43;2.60;;;;;;;15.43;79.90;101636.16;5081734;28;20218;-69
2021/08/18 00:53:19;;;;;;;6.50;2.90;;;;;;;15.49;80.34;101634.38;5085002;28;20233;-69
2021/08/18 00:55:45;;;;;;;5.90;3.67;;;;;;;15.37;80.57;101633.56;5082572;28;20290;-70
2021/08/18 00:58:12;;;;;;;3.20;2.77;;;;;;;15.41;80.90;101635.56;5082843;28;20259;-70
2021/08/18 01:00:38;;;;;;;6.13;3.87;;;;;;;15.67;79.83;101633.47;5081347;28;20262;-69
2021/08/18 01:03:05;;;;;;;6.63;3.70;;;;;;;15.49;80.41;101632.50;5082303;28;20708;-69
2021/08/18 01:05:32;;;;;;;6.00;3.93;;;;;;;15.48;80.42;101630.06;5081353;28;20236;-69
2021/08/18 01:08:00;;;;;;;4.33;3.80;;;;;;;15.45;80.69;101634.03;5082559;28;20217;-69
2021/08/18 01:10:31;;;;;;;8.17;3.90;;;;;;;15.38;81.09;101621.78;5082003;28;20221;-69
2021/08/18 01:12:57;;;;;;;8.43;4.23;;;;;;;15.40;81.17;101630.44;5081670;28;20205;-69
2021/08/18 01:15:26;;;;;;;5.60;3.37;;;;;;;15.44;81.20;101623.50;5082922;28;20232;-69
2021/08/18 01:17:54;;;;;;;6.57;4.17;;;;;;;15.48;80.98;101625.47;5083604;28;20205;-69
2021/08/18 01:20:22;;;;;;;6.97;4.20;;;;;;;15.58;80.91;101625.72;5081529;28;20652;-69
2021/08/18 01:22:49;;;;;;;7.50;4.10;;;;;;;15.52;80.83;101625.84;5080631;28;20210;-69
2021/08/18 01:25:17;;;;;;;6.63;4.50;;;;;;;15.69;80.34;101617.88;5081524;28;20282;-69
2021/08/18 01:27:47;;;;;;;8.10;4.50;;;;;;;15.68;80.38;101621.63;5081735;28;20216;-69
2021/08/18 01:30:16;;;;;;;5.63;4.23;;;;;;;15.64;80.69;101620.47;5081387;28;20209;-69
2021/08/18 01:32:44;;;;;;;7.97;5.13;;;;;;;15.53;81.21;101624.78;5082278;28;20228;-69
2021/08/18 01:35:19;;;;;;;7.27;4.63;;;;;;;15.66;80.99;101626.44;5083136;28;20251;-69
2021/08/18 01:37:45;;;;;;;7.83;4.67;;;;;;;15.69;80.88;101618.69;5087418;28;20205;-69
2021/08/18 01:40:12;;;;;;;6.67;5.17;;;;;;;15.71;80.72;101613.88;5083350;28;20259;-69
2021/08/18 01:42:39;;;;;;;6.77;4.63;;;;;;;15.85;79.93;101614.44;5087332;28;20213;-70
2021/08/18 01:45:07;;;;;;;10.03;5.43;;;;;;;15.81;79.79;101614.09;5084091;28;20233;-69
2021/08/18 01:47:35;;;;;;;9.83;5.40;;;;;;;15.75;79.98;101611.53;5085699;28;20278;-69
2021/08/18 01:50:01;;;;;;;6.90;4.97;;;;;;;15.66;80.29;101619.19;5085491;28;20209;-69
2021/08/18 01:52:28;;;;;;;7.63;4.90;;;;;;;15.69;80.33;101609.81;5084597;28;20209;-69
2021/08/18 01:54:54;;;;;;;6.30;4.70;;;;;;;15.69;80.14;101616.00;5084714;28;20254;-69
2021/08/18 01:57:21;;;;;;;7.77;4.73;;;;;;;15.75;79.71;101620.47;5089031;28;20219;-69
2021/08/18 01:59:47;;;;;;;8.77;5.70;;;;;;;15.64;80.47;101617.78;5085963;28;20619;-69
2021/08/18 02:02:14;;;;;;;9.00;5.80;;;;;;;15.55;81.02;101612.72;5086438;28;20282;-69
2021/08/18 02:04:41;;;;;;;7.97;5.93;;;;;;;15.69;80.80;101609.81;5084684;28;20225;-69
2021/08/18 02:07:08;;;;;;;7.87;5.70;;;;;;;15.72;80.55;101618.22;5085374;28;20263;-69
2021/08/18 02:09:34;;;;;;;9.77;6.00;;;;;;;15.73;80.25;101611.78;5085461;28;20570;-69
2021/08/18 02:12:01;;;;;;;7.47;5.50;;;;;;;15.64;81.03;101615.09;5086665;28;20635;-69
2021/08/18 02:14:27;;;;;;;7.37;5.43;;;;;;;15.79;80.39;101612.72;5089538;28;20717;-69
2021/08/18 02:16:53;;;;;;;8.20;4.83;;;;;;;15.85;80.36;101612.56;5083984;28;20229;-69
2021/08/18 02:19:20;;;;;;;8.63;5.23;;;;;;;15.97;80.22;101615.22;5084758;28;20214;-69
2021/08/18 02:21:47;;;;;;;7.93;4.97;;;;;;;16.25;79.07;101619.78;5087411;28;20217;-69
2021/08/18 02:24:14;;;;;;;9.57;5.27;;;;;;;16.03;79.75;101619.66;5086236;28;20242;-69
2021/08/18 02:26:40;;;;;;;8.63;5.50;;;;;;;15.92;80.35;101617.00;5085929;28;20213;-69
2021/08/18 02:29:06;;;;;;;9.50;5.73;;;;;;;15.97;80.38;101617.91;5084780;28;20260;-69
2021/08/18 02:31:33;;;;;;;7.97;5.50;;;;;;;16.18;79.69;101622.66;5085906;28;20209;-69
2021/08/18 02:33:59;;;;;;;10.13;6.23;;;;;;;16.13;79.81;101617.19;5085590;28;20218;-69
2021/08/18 02:36:25;;;;;;;10.00;6.20;;;;;;;15.92;80.37;101625.91;5084200;28;20217;-69
2021/08/18 02:38:53;;;;;;;6.00;4.97;;;;;;;16.06;80.44;101623.75;5084220;28;20221;-69
2021/08/18 02:41:20;;;;;;;8.30;5.90;;;;;;;16.05;80.10;101622.13;5083851;28;20214;-69
2021/08/18 02:43:46;;;;;;;11.70;6.70;;;;;;;16.02;80.36;101622.59;5084635;28;20294;-69
2021/08/18 02:46:12;;;;;;;8.57;6.10;;;;;;;16.19;79.76;101623.47;5083385;28;20276;-69
2021/08/18 02:48:39;;;;;;;8.90;5.57;;;;;;;16.27;79.11;101627.66;5083436;28;20213;-69
2021/08/18 02:51:05;;;;;;;5.60;4.83;;;;;;;16.05;78.80;101622.94;5083711;28;20257;-69
2021/08/18 02:53:31;;;;;;;5.33;4.13;;;;;;;16.01;77.53;101608.31;5085187;28;20228;-69
2021/08/18 02:55:59;;;;;;;6.90;4.57;;;;;;;16.00;77.00;101611.22;5086319;28;20537;-69
2021/08/18 02:58:25;;;;;;;10.33;3.90;;;;;;;15.86;76.09;101610.69;5085354;28;20608;-69
2021/08/18 03:00:52;;;;;;;5.53;3.23;;;;;;;15.97;73.75;101614.41;5084008;28;20278;-69
2021/08/18 03:03:18;;;;;;;7.07;3.47;;;;;;;16.02;71.72;101603.75;5083027;28;20938;-69
2021/08/18 03:05:45;;;;;;;5.37;3.37;;;;;;;15.87;72.35;101599.66;5085315;28;20229;-69
2021/08/18 03:08:12;;;;;;;3.70;3.20;;;;;;;15.82;72.75;101598.75;5084741;28;20615;-69
2021/08/18 03:10:38;;;;;;;6.23;3.10;;;;;;;15.77;73.79;101598.66;5081666;28;20275;-69
2021/08/18 03:13:06;;;;;;;6.67;3.87;;;;;;;15.82;73.25;101602.25;5083014;28;20262;-69
2021/08/18 03:15:33;;;;;;;6.60;3.83;;;;;;;16.00;73.27;101593.16;5083325;28;20229;-69
2021/08/18 03:17:59;;;;;;;5.93;4.30;;;;;;;16.14;73.53;101591.03;5081688;28;20447;-69
2021/08/18 03:20:26;;;;;;;6.53;4.20;;;;;;;16.06;74.21;101600.31;5083884;28;20544;-69
2021/08/18 03:22:53;;;;;;;9.93;4.60;;;;;;;16.16;73.77;101595.13;5085034;28;20265;-69
2021/08/18 03:25:20;;;;;;;6.13;4.83;;;;;;;16.17;74.15;101596.75;5084559;28;20578;-69
2021/08/18 03:27:47;;;;;;;8.07;4.83;;;;;;;16.09;75.61;101601.69;5082221;28;20651;-69
2021/08/18 03:30:15;;;;;;;6.50;4.70;;;;;;;16.46;74.96;101599.41;5084227;28;20802;-69
2021/08/18 03:32:41;;;;;;;10.00;5.07;;;;;;;16.56;75.52;101601.47;5081549;28;20217;-69
2021/08/18 03:35:08;;;;;;;8.47;5.30;;;;;;;16.33;76.46;101607.81;5083700;28;20206;-69
2021/08/18 03:37:34;;;;;;;8.87;5.50;;;;;;;16.48;76.21;101605.38;5082251;28;20209;-69
2021/08/18 03:40:01;;;;;;;10.97;6.00;;;;;;;16.60;76.25;101614.22;5082127;28;20681;-69
2021/08/18 03:42:27;;;;;;;9.43;5.60;;;;;;;16.72;75.78;101603.38;5083027;28;20213;-69
2021/08/18 03:44:54;;;;;;;11.07;6.63;;;;;;;16.55;76.67;101605.22;5082320;28;20634;-69
2021/08/18 03:47:21;;;;;;;11.23;5.80;;;;;;;16.62;77.00;101611.28;5082848;28;20283;-69
2021/08/18 03:49:48;;;;;;;11.10;6.03;;;;;;;16.57;77.28;101606.63;5082131;28;20266;-69
2021/08/18 03:52:14;;;;;;;9.00;6.20;;;;;;;16.46;78.35;101607.50;5083555;28;20210;-69
2021/08/18 03:54:40;;;;;;;9.70;5.90;;;;;;;16.05;79.48;101606.75;5084460;28;20347;-69
2021/08/18 03:57:07;;;;;;;7.50;5.57;;;;;;;16.22;79.17;101603.28;5086001;28;20639;-69
2021/08/18 03:59:33;;;;;;;12.20;5.63;;;;;;;16.17;79.51;101606.72;5080258;28;20213;-69
2021/08/18 04:02:00;;;;;;;11.87;5.40;;;;;;;16.18;78.84;101605.66;5082596;28;20225;-69
2021/08/18 04:04:27;;;;;;;8.80;5.33;;;;;;;16.19;78.97;101605.41;5083160;28;20608;-69
2021/08/18 04:06:54;;;;;;;11.00;5.20;;;;;;;16.08;78.88;101610.84;5081771;28;20267;-69
2021/08/18 04:09:20;;;;;;;9.17;4.73;;;;;;;16.11;78.44;101607.66;5081264;28;20294;-69
2021/08/18 04:11:46;;;;;;;10.57;5.63;;;;;;;16.32;77.71;101608.88;5082267;28;20213;-69
2021/08/18 04:14:13;;;;;;;9.13;5.33;;;;;;;16.27;78.11;101606.09;5082884;28;20221;-69
2021/08/18 04:16:39;;;;;;;10.10;4.60;;;;;;;16.11;78.43;101603.09;5079767;28;21231;-68
2021/08/18 04:19:06;;;;;;;10.13;4.37;;;;;;;16.34;77.86;101601.34;5082356;28;20283;-68
2021/08/18 04:21:33;;;;;;;7.60;4.70;;;;;;;16.19;78.00;101601.91;5081604;28;20218;-68
2021/08/18 04:24:00;;;;;;;6.93;4.63;;;;;;;16.24;77.75;101606.56;5079317;28;20643;-69
2021/08/18 04:26:26;;;;;;;8.00;3.80;;;;;;;16.29;77.14;101602.09;5081032;28;20681;-68
2021/08/18 04:28:54;;;;;;;6.53;3.93;;;;;;;16.24;76.88;101615.47;5082170;28;20711;-68
2021/08/18 04:31:21;;;;;;;8.53;4.50;;;;;;;16.27;77.39;101608.78;5082338;28;20265;-77
2021/08/18 04:33:47;;;;;;;5.93;4.13;;;;;;;16.18;77.12;101611.03;5082391;28;20206;-77
2021/08/18 04:36:15;;;;;;;6.50;4.07;;;;;;;16.45;75.84;101611.25;5082550;28;20566;-77
2021/08/18 04:38:43;;;;;;;6.17;3.93;;;;;;;16.40;76.54;101611.19;5082544;28;20589;-77
2021/08/18 04:41:09;;;;;;;6.57;4.27;;;;;;;16.34;76.89;101604.88;5081782;28;20678;-77
2021/08/18 04:43:36;;;;;;;6.73;3.93;;;;;;;16.59;75.22;101606.38;5080890;28;20272;-77
2021/08/18 04:46:02;;;;;;;4.07;3.40;;;;;;;16.20;77.19;101608.91;5080586;28;20248;-77
2021/08/18 04:48:29;;;;;;;5.33;3.60;;;;;;;16.14;77.92;101612.59;5082281;28;20263;-76
2021/08/18 04:50:55;;;;;;;6.37;2.90;;;;;;;16.34;76.69;101609.44;5083156;28;20247;-76
2021/08/18 04:53:22;;;;;;;7.53;3.77;;;;;;;16.44;76.91;101606.94;5086774;28;20234;-78
2021/08/18 04:55:50;;;;;;;6.60;3.40;;;;;;;16.37;77.28;101606.25;5080011;28;20211;-76
2021/08/18 04:58:17;;;;;;;9.60;3.50;;;;;;;16.52;76.81;101606.53;5083325;28;20263;-76
2021/08/18 05:00:43;;;;;;;7.60;3.83;;;;;;;16.53;77.40;101610.06;5081499;28;20219;-76
2021/08/18 05:03:12;;;;;;;6.73;3.97;;;;;;;16.79;76.77;101605.94;5082943;28;20214;-76
2021/08/18 05:05:38;;;;;;;9.43;4.50;;;;;;;16.57;77.67;101609.31;5084496;28;20237;-76
2021/08/18 05:08:06;;;;;;;6.87;3.70;;;;;;;16.35;78.85;101613.78;5083293;28;20289;-76
2021/08/18 05:10:33;;;;;;;6.73;4.00;;;;;;;16.39;79.12;101604.16;5080605;28;20305;-76
2021/08/18 05:13:01;;;;;;;8.13;4.63;;;;;;;16.32;79.43;101607.00;5082442;28;20263;-76
2021/08/18 05:15:27;;;;;;;7.67;4.43;;;;;;;16.23;79.87;101600.34;5079641;28;20242;-76
2021/08/18 05:17:54;;;;;;;10.93;4.23;;;;;;;16.26;80.12;101604.44;5082297;28;20291;-76
2021/08/18 05:20:21;;;;;;;7.03;4.27;;;;;;;16.14;80.87;101602.63;5080846;28;20282;-76
2021/08/18 05:22:49;;;;;;;7.37;3.87;;;;;;;16.20;80.67;101603.53;5081848;28;20291;-76
2021/08/18 05:25:16;;;;;;;6.67;4.20;;;;;;;16.26;80.49;101607.13;5081794;28;20643;-76
2021/08/18 05:27:43;;;;;;;5.10;3.80;;;;;;;16.31;80.26;101599.97;5081667;28;20228;-76
2021/08/18 05:30:12;;;;;;;6.20;3.70;;;;;;;16.43;79.33;101598.03;5081049;28;20553;-76
2021/08/18 05:32:40;;;;;;;7.83;4.00;;;;;;;16.45;79.18;101598.59;5080202;28;20344;-76
2021/08/18 05:35:09;;;;;;;3.93;3.13;;;;;;;16.45;78.89;101590.50;5076885;28;20205;-77
2021/08/18 05:37:36;;;;;;;5.23;3.20;;;;;;;16.53;78.22;101594.69;5077990;28;20220;-76
2021/08/18 05:40:03;;;;;;;5.97;3.40;;;;;;;16.46;78.72;101597.53;5081156;28;20224;-75
2021/08/18 05:42:29;;;;;;;7.43;3.63;;;;;;;16.58;78.35;101591.25;5082534;28;20664;-76
2021/08/18 05:44:56;;;;;;;5.83;3.80;;;;;;;16.71;78.24;101597.16;5077923;28;20240;-76
2021/08/18 05:47:24;;;;;;;8.87;4.10;;;;;;;16.72;78.25;101598.00;5078857;28;20225;-76
2021/08/18 05:49:52;;;;;;;7.00;3.67;;;;;;;16.75;77.72;101595.59;5080287;28;20242;-76
2021/08/18 05:52:19;;;;;;;7.47;3.53;;;;;;;16.64;78.62;101601.03;5080687;28;20216;-75
2021/08/18 05:54:45;;;;;;;5.83;3.70;;;;;;;16.65;78.51;101602.72;5079964;28;20228;-76
2021/08/18 05:57:11;;;;;;;5.43;3.33;;;;;;;16.98;77.19;101599.22;5082839;28;20214;-76
2021/08/18 05:59:38;;;;;;;6.10;3.70;;;;;;;16.92;77.04;101598.31;5083048;28;20209;-76
2021/08/18 06:02:05;;;;;;;7.17;3.27;;;;;;;16.75;78.08;101603.69;5081285;28;20206;-76
2021/08/18 06:04:32;;;;;;;6.47;3.80;;;;;;;16.75;77.70;101595.59;5083657;28;20679;-76
2021/08/18 06:06:59;;;;;;;10.27;4.20;;;;;;;16.86;77.17;101595.78;5078545;28;20235;-76
2021/08/18 06:09:25;;;;;;;13.13;4.17;;;;;;;16.99;77.12;101601.66;5081695;28;20226;-76
2021/08/18 06:11:52;;;;;;;12.87;4.77;;;;;;;17.15;77.12;101601.88;5080452;28;21144;-76
2021/08/18 06:14:18;;;;;;;6.90;4.77;;;;;;;17.33;76.63;101594.31;5080677;28;20274;-76
2021/08/18 06:16:44;;;;;;;7.23;3.80;;;;;;;17.26;77.01;101603.66;5079271;28;20279;-76
2021/08/18 06:19:11;;;;;;;13.53;4.50;;;;;;;17.22;77.65;101594.44;5079882;28;20212;-77
2021/08/18 06:21:38;;;;;;;11.77;4.77;;;;;;;17.10;77.88;101599.13;5089933;28;20218;-77
2021/08/18 06:24:13;;;;;;;5.80;3.70;;;;;;;17.25;77.56;101610.94;5087210;28;20295;-77
2021/08/18 06:26:39;;;;;;;7.67;3.50;;;;;;;17.23;77.66;101613.09;5084294;28;20599;-77
2021/08/18 06:29:06;;;;;;;6.73;3.63;;;;;;;17.23;78.01;101614.97;5085171;28;20207;-77
2021/08/18 06:31:33;;;;;;;6.00;3.40;;;;;;;17.02;77.72;101616.53;5085583;28;20228;-76
2021/08/18 06:34:00;;;;;;;7.43;3.80;;;;;;;17.22;77.81;101611.44;5086187;28;20210;-76
2021/08/18 06:36:26;;;;;;;8.57;4.13;;;;;;;17.48;76.61;101623.44;5084557;28;20219;-77
2021/08/18 06:38:54;;;;;;;7.53;3.73;;;;;;;17.59;75.89;101618.97;5083310;28;20223;-77
2021/08/18 06:41:20;;;;;;;6.77;3.83;;;;;;;17.43;76.87;101622.56;5087048;28;20292;-77
2021/08/18 06:43:47;;;;;;;12.93;4.50;;;;;;;17.38;77.59;101625.16;5087064;28;20226;-77
2021/08/18 06:46:13;;;;;;;5.17;3.83;;;;;;;17.31;77.50;101617.25;5090958;28;20224;-78
2021/08/18 06:48:40;;;;;;;11.13;4.30;;;;;;;17.56;76.75;101628.41;5090768;28;20214;-78
2021/08/18 06:51:06;;;;;;;6.87;4.03;;;;;;;17.39;77.56;101627.63;5099619;28;20296;-78
2021/08/18 06:53:33;;;;;;;11.43;4.20;;;;;;;17.50;77.24;101624.00;5089574;28;20227;-78
2021/08/18 06:56:01;;;;;;;7.50;4.23;;;;;;;17.51;77.02;101630.22;5086400;28;20582;-78
2021/08/18 06:58:27;;;;;;;9.97;3.87;;;;;;;17.61;76.34;101628.47;5090197;28;20327;-78
2021/08/18 07:00:55;;;;;;;9.10;4.30;;;;;;;17.56;76.91;101624.91;5091333;28;20222;-78
2021/08/18 07:03:21;;;;;;;6.30;4.13;;;;;;;17.72;77.04;101632.16;5090635;28;20249;-78
2021/08/18 07:05:47;;;;;;;7.10;4.83;;;;;;;17.87;76.39;101634.22;5093248;28;20264;-78
2021/08/18 07:08:14;;;;;;;7.27;4.70;;;;;;;17.69;76.83;101635.38;5083773;28;20235;-76
2021/08/18 07:10:41;;;;;;;8.70;4.67;;;;;;;17.51;77.57;101632.91;5084667;28;20612;-77
2021/08/18 07:13:08;;;;;;;7.07;4.77;;;;;;;17.78;76.50;101625.72;5081528;28;20305;-77
2021/08/18 07:15:35;;;;;;;5.00;4.50;;;;;;;17.79;76.38;101622.00;5084384;28;20307;-77
2021/08/18 07:18:02;;;;;;;5.00;4.43;;;;;;;17.75;77.50;101634.34;5084595;28;20266;-77
2021/08/18 07:20:29;;;;;;;6.00;4.50;;;;;;;17.83;76.12;101623.09;5084870;28;20230;-77
2021/08/18 07:22:55;;;;;;;4.43;4.03;;;;;;;17.90;76.21;101634.53;5084680;28;20212;-76
2021/08/18 07:25:22;;;;;;;8.63;4.67;;;;;;;17.79;76.82;101630.09;5084002;28;20220;-76
2021/08/18 07:27:48;;;;;;;5.80;4.33;;;;;;;18.09;75.62;101626.09;5089757;28;20243;-78
2021/08/18 07:30:16;;;;;;;5.17;4.17;;;;;;;17.94;76.15;101634.88;5091579;28;20674;-78
2021/08/18 07:32:43;;;;;;;5.00;4.23;;;;;;;17.51;76.78;101632.91;5090743;28;20214;-78
2021/08/18 07:35:10;;;;;;;4.60;4.10;;;;;;;17.49;77.75;101641.28;5089455;28;20218;-78
2021/08/18 07:37:37;;;;;;;10.53;4.27;;;;;;;17.50;77.86;101636.69;5088886;28;20632;-78
2021/08/18 07:40:04;;;;;;;8.13;4.07;;;;;;;17.78;76.39;101628.44;5089156;28;20591;-78
2021/08/18 07:42:31;;;;;;;4.70;3.97;;;;;;;17.60;76.71;101632.25;5086114;28;20223;-77
2021/08/18 07:44:58;;;;;;;7.37;4.57;;;;;;;17.49;77.09;101625.06;5078026;28;20652;-76
2021/08/18 07:47:26;;;;;;;7.70;4.20;;;;;;;17.55;77.12;101626.78;5081502;28;20235;-77
2021/08/18 07:49:52;;;;;;;7.37;3.80;;;;;;;17.66;76.62;101627.75;5086005;28;20246;-77
2021/08/18 07:52:19;;;;;;;7.70;4.33;;;;;;;17.52;76.85;101626.44;5085380;28;20234;-77
2021/08/18 07:54:46;;;;;;;4.33;3.90;;;;;;;17.76;76.76;101622.47;5082597;28;20230;-77
2021/08/18 07:57:13;;;;;;;4.53;4.00;;;;;;;17.57;76.79;101624.63;5085107;28;20218;-76
2021/08/18 07:59:40;;;;;;;6.27;3.87;;;;;;;17.53;77.25;101625.38;5084107;28;20289;-77
2021/08/18 08:02:07;;;;;;;5.43;3.80;;;;;;;17.48;77.68;101619.91;5083237;28;20263;-76
2021/08/18 08:04:35;;;;;;;5.40;3.73;;;;;;;17.57;77.71;101619.25;5081379;28;20228;-77
2021/08/18 08:07:01;;;;;;;8.63;4.90;;;;;;;17.70;76.76;101623.47;5082604;28;20231;-76
2021/08/18 08:09:27;;;;;;;5.90;3.47;;;;;;;17.57;77.19;101623.81;5083583;28;20232;-76
2021/08/18 08:11:54;;;;;;;8.00;3.63;;;;;;;17.85;76.43;101622.84;5081482;28;20271;-77
2021/08/18 08:14:20;;;;;;;8.20;4.37;;;;;;;18.19;75.73;101621.63;5083345;28;20236;-77
2021/08/18 08:16:48;;;;;;;5.73;4.30;;;;;;;18.63;74.39;101616.09;5079378;28;20238;-76
2021/08/18 08:19:15;;;;;;;7.80;5.50;;;;;;;18.81;73.91;101617.63;5088800;28;20262;-77
2021/08/18 08:21:43;;;;;;;8.53;5.30;;;;;;;18.45;75.70;101619.19;5088187;28;20215;-77
2021/08/18 08:24:09;;;;;;;6.83;6.23;;;;;;;18.68;74.91;101615.38;5084487;28;20221;-77
2021/08/18 08:26:36;;;;;;;8.23;5.63;;;;;;;18.73;75.24;101621.63;5083940;28;20252;-78
2021/08/18 08:29:02;;;;;;;9.13;4.50;;;;;;;18.47;75.50;101615.13;5083515;28;20215;-77
2021/08/18 08:31:29;;;;;;;8.43;4.07;;;;;;;18.43;74.67;101605.91;5084811;28;20268;-77
2021/08/18 08:33:55;;;;;;;5.87;3.80;;;;;;;18.28;76.04;101621.97;5083904;28;20215;-77
2021/08/18 08:36:22;;;;;;;6.10;3.50;;;;;;;18.36;75.08;101615.28;5082779;28;20225;-77
2021/08/18 08:38:50;;;;;;;3.87;3.10;;;;;;;18.19;75.71;101624.34;5080212;28;20219;-77
2021/08/18 08:41:17;;;;;;;5.53;3.37;;;;;;;18.18;75.98;101622.69;5082878;28;20215;-77
2021/08/18 08:43:43;;;;;;;5.83;3.47;;;;;;;18.78;74.05;101618.94;5079035;28;20703;-77
2021/08/18 08:46:10;;;;;;;7.07;3.27;;;;;;;18.82;73.64;101619.25;5083220;28;20233;-77
2021/08/18 08:48:39;;;;;;;6.37;3.83;;;;;;;18.78;73.48;101623.53;5082659;28;20217;-77
2021/08/18 08:51:06;;;;;;;4.57;3.47;;;;;;;18.92;73.51;101624.72;5079088;28;20219;-77
2021/08/18 08:53:33;;;;;;;3.90;3.60;;;;;;;18.74;72.56;101620.53;5080214;28;20301;-77
2021/08/18 08:56:00;;;;;;;5.40;3.83;;;;;;;18.71;74.22;101620.25;5080889;28;20223;-77
2021/08/18 08:58:27;;;;;;;7.27;3.60;;;;;;;18.72;71.95;101622.69;5081113;28;20228;-77
2021/08/18 09:00:53;;;;;;;6.97;3.80;;;;;;;18.75;72.47;101615.94;5081740;28;20604;-77
2021/08/18 09:03:23;;;;;;;6.87;3.73;;;;;;;18.50;73.34;101624.63;5084638;28;20706;-77
2021/08/18 09:05:50;;;;;;;6.53;3.90;;;;;;;18.53;72.44;101622.22;5082789;28;20333;-76
2021/08/18 09:08:19;;;;;;;4.53;4.03;;;;;;;18.57;73.45;101609.00;5084366;28;20276;-77
2021/08/18 09:11:06;;;;;;;5.43;3.63;;;;;;;18.67;73.55;101611.81;5081192;28;20642;-77
2021/08/18 09:13:39;;;;;;;6.40;3.90;;;;;;;18.63;73.34;101615.25;5083563;28;20214;-77
2021/08/18 09:16:06;;;;;;;4.87;3.80;;;;;;;18.51;73.86;101613.53;5081067;28;20308;-77
2021/08/18 09:18:37;;;;;;;10.30;3.97;;;;;;;18.36;73.70;101609.88;5085197;28;20220;-77
2021/08/18 09:21:03;;;;;;;9.80;4.57;;;;;;;18.27;74.78;101609.50;5081553;28;20294;-77
2021/08/18 09:23:30;;;;;;;11.93;5.30;;;;;;;18.31;75.01;101612.56;5083909;28;20309;-77
2021/08/18 09:25:56;;;;;;;7.60;4.67;;;;;;;18.21;75.57;101613.25;5082249;28;20299;-77
2021/08/18 09:28:24;;;;;;;6.50;4.30;;;;;;;18.18;74.97;101614.59;5084342;28;20296;-78
2021/08/18 09:30:57;;;;;;;6.00;4.33;;;;;;;18.04;74.95;101607.94;5087954;28;20214;-78
2021/08/18 09:33:32;;;;;;;8.30;4.40;;;;;;;18.31;74.52;101615.25;5087043;28;20283;-78
2021/08/18 09:35:59;;;;;;;6.17;4.80;;;;;;;18.20;74.99;101614.31;5090464;28;20212;-78
2021/08/18 09:38:26;;;;;;;7.83;4.80;;;;;;;18.17;74.46;101612.16;5088273;28;20254;-78
2021/08/18 09:40:54;;;;;;;5.70;4.03;;;;;;;18.11;73.58;101607.72;5088712;28;20510;-78
2021/08/18 09:43:25;;;;;;;7.10;4.63;;;;;;;18.38;72.61;101605.84;5090360;28;20220;-78
2021/08/18 09:45:55;;;;;;;5.03;4.33;;;;;;;18.42;72.73;101606.97;5096471;28;20328;-79
2021/08/18 09:48:22;;;;;;;7.37;4.60;;;;;;;18.93;71.57;101612.84;5096626;28;20250;-78
2021/08/18 09:50:51;;;;;;;5.07;4.60;;;;;;;19.10;71.67;101599.16;5095200;28;20217;-79
2021/08/18 09:53:20;;;;;;;6.00;5.40;;;;;;;19.19;71.75;101605.72;5094629;28;20240;-79
2021/08/18 09:55:54;;;;;;;7.80;6.30;;;;;;;19.61;70.18;101611.13;5098693;28;20284;-79
2021/08/18 09:58:28;;;;;;;7.43;6.07;;;;;;;19.47;70.78;101601.00;5104513;28;20215;-79
2021/08/18 10:00:55;;;;;;;6.47;5.87;;;;;;;19.37;70.00;101602.56;5098824;28;20301;-79
2021/08/18 10:03:22;;;;;;;6.33;5.70;;;;;;;19.54;71.70;101602.38;5097578;28;20221;-79
2021/08/18 10:05:50;;;;;;;6.13;5.07;;;;;;;19.52;69.58;101609.13;5094418;28;20215;-79
2021/08/18 10:08:17;;;;;;;5.60;4.97;;;;;;;19.65;69.98;101603.25;5080807;28;20271;-79
2021/08/18 10:10:44;;;;;;;5.03;4.37;;;;;;;19.79;67.91;101600.88;5098006;28;20642;-78
2021/08/18 10:13:11;;;;;;;8.27;4.67;;;;;;;19.44;68.95;101602.34;5094930;28;20213;-78
2021/08/18 10:15:39;;;;;;;4.90;4.33;;;;;;;19.41;69.35;101600.13;5094195;28;20241;-78
2021/08/18 10:18:07;;;;;;;4.83;3.43;;;;;;;19.18;68.92;101595.94;5094428;28;20208;-78
2021/08/18 10:20:34;;;;;;;4.00;3.30;;;;;;;19.13;68.86;101589.69;5093307;28;20220;-78
2021/08/18 10:23:03;;;;;;;5.13;3.97;;;;;;;19.08;69.55;101596.72;5091789;28;20703;-78
2021/08/18 10:25:35;;;;;;;4.20;3.07;;;;;;;19.01;68.61;101606.13;5092096;28;20212;-78
2021/08/18 10:28:06;;;;;;;6.60;3.53;;;;;;;19.02;69.76;101603.16;5091211;28;20768;-78
2021/08/18 10:30:33;;;;;;;4.80;3.80;;;;;;;18.99;70.06;101600.16;5093132;28;20260;-78
2021/08/18 10:33:01;;;;;;;6.00;3.80;;;;;;;19.07;69.75;101595.06;5094505;28;20224;-78
2021/08/18 10:35:44;;;;;;;4.57;3.90;;;;;;;18.77;70.88;101592.13;5092490;28;20281;-78
2021/08/18 10:38:38;;;;;;;4.43;3.97;;;;;;;18.84;71.54;101586.50;5091197;28;20224;-78
2021/08/18 10:41:04;;;;;;;5.50;3.60;;;;;;;18.99;71.14;101595.56;5092836;28;20220;-78
2021/08/18 10:43:54;;;;;;;5.37;3.97;;;;;;;18.50;72.65;101586.75;5094799;28;20278;-78
2021/08/18 10:46:20;;;;;;;5.60;3.80;;;;;;;18.61;73.09;101590.34;5087317;28;20220;-78
2021/08/18 10:49:03;;;;;;;7.57;4.50;;;;;;;18.66;72.77;101585.00;5090320;28;20234;-78
2021/08/18 10:51:52;;;;;;;4.70;3.70;;;;;;;18.72;72.55;101579.38;5093057;28;20281;-78
2021/08/18 10:54:41;;;;;;;6.40;4.13;;;;;;;18.67;72.90;101575.81;5089950;28;20895;-78
2021/08/18 10:57:36;;;;;;;5.73;3.77;;;;;;;18.72;72.65;101576.69;5087402;28;20253;-78
2021/08/18 11:00:17;;;;;;;11.23;4.63;;;;;;;18.95;72.41;101572.78;5097138;28;20234;-78
2021/08/18 11:02:58;;;;;;;6.30;5.40;;;;;;;18.84;73.91;101584.63;5098343;28;20688;-78
2021/08/18 11:05:48;;;;;;;5.50;4.87;;;;;;;18.80;73.72;101584.31;5091950;28;20214;-79
2021/08/18 11:08:16;;;;;;;7.87;4.70;;;;;;;18.52;73.13;101582.69;5095832;28;20242;-78
2021/08/18 11:11:07;;;;;;;6.27;5.40;;;;;;;18.73;72.75;101572.88;5092713;28;20213;-78
2021/08/18 11:13:38;;;;;;;6.83;5.60;;;;;;;18.81;72.65;101577.84;5091413;28;20523;-78
2021/08/18 11:16:12;;;;;;;7.93;6.47;;;;;;;18.88;72.71;101580.31;5090205;28;20232;-78
2021/08/18 11:18:46;;;;;;;7.33;6.63;;;;;;;18.69;74.24;101581.81;5087365;28;20206;-77
2021/08/18 11:21:17;;;;;;;7.53;5.83;;;;;;;18.99;72.47;101584.72;5089825;28;20641;-78
2021/08/18 11:23:50;;;;;;;5.63;4.83;;;;;;;19.14;71.66;101575.88;5088145;28;20235;-78
2021/08/18 11:26:19;;;;;;;5.13;4.00;;;;;;;18.83;71.70;101583.00;5089983;28;20635;-78
2021/08/18 11:28:50;;;;;;;4.27;3.83;;;;;;;19.07;70.91;101576.13;5086684;28;20265;-78